sensor_id;sensor_type;location;lat;lon;timestamp;pressure;altitude;pressure_sealevel;temperature;humidity
49423;BME280;36998;51.974;20.150;2022-12-13T00:01:38;99184.47;;;1.92;67.53
49423;BME280;36998;51.974;20.150;2022-12-13T00:04:05;99178.88;;;1.95;67.43
49423;BME280;36998;51.974;20.150;2022-12-13T00:06:32;99193.84;;;1.96;67.37
49423;BME280;36998;51.974;20.150;2022-12-13T00:08:58;99178.03;;;1.94;67.04
49423;BME280;36998;51.974;20.150;2022-12-13T00:11:25;99179.00;;;1.93;67.13
49423;BME280;36998;51.974;20.150;2022-12-13T00:13:50;99182.38;;;1.95;66.98
49423;BME280;36998;51.974;20.150;2022-12-13T00:16:18;99192.88;;;1.87;67.30
49423;BME280;36998;51.974;20.150;2022-12-13T00:18:50;99178.09;;;1.83;67.44
49423;BME280;36998;51.974;20.150;2022-12-13T00:21:19;99179.38;;;1.79;67.00
49423;BME280;36998;51.974;20.150;2022-12-13T00:23:45;99192.28;;;1.83;67.02
49423;BME280;36998;51.974;20.150;2022-12-13T00:26:14;99190.59;;;1.82;67.39
49423;BME280;36998;51.974;20.150;2022-12-13T00:28:40;99194.69;;;1.86;67.16
49423;BME280;36998;51.974;20.150;2022-12-13T00:31:06;99190.47;;;1.84;67.17
49423;BME280;36998;51.974;20.150;2022-12-13T00:33:32;99196.47;;;1.86;67.13
49423;BME280;36998;51.974;20.150;2022-12-13T00:35:58;99199.13;;;1.86;67.31
49423;BME280;36998;51.974;20.150;2022-12-13T00:38:24;99207.13;;;1.86;67.35
49423;BME280;36998;51.974;20.150;2022-12-13T00:40:51;99200.59;;;1.90;67.11
49423;BME280;36998;51.974;20.150;2022-12-13T00:43:18;99198.59;;;1.92;67.00
49423;BME280;36998;51.974;20.150;2022-12-13T00:45:43;99205.19;;;1.88;67.23
49423;BME280;36998;51.974;20.150;2022-12-13T00:48:09;99206.75;;;1.91;66.83
49423;BME280;36998;51.974;20.150;2022-12-13T00:50:36;99209.53;;;1.89;67.13
49423;BME280;36998;51.974;20.150;2022-12-13T00:53:03;99212.75;;;1.93;67.04
49423;BME280;36998;51.974;20.150;2022-12-13T00:55:29;99210.38;;;1.90;67.21
49423;BME280;36998;51.974;20.150;2022-12-13T00:57:54;99222.47;;;1.94;66.88
49423;BME280;36998;51.974;20.150;2022-12-13T01:00:20;99228.31;;;1.87;67.22
49423;BME280;36998;51.974;20.150;2022-12-13T01:02:46;99219.03;;;1.82;67.35
49423;BME280;36998;51.974;20.150;2022-12-13T01:05:12;99223.38;;;1.83;67.28
49423;BME280;36998;51.974;20.150;2022-12-13T01:07:38;99216.06;;;1.75;67.42
49423;BME280;36998;51.974;20.150;2022-12-13T01:10:06;99212.41;;;1.76;67.27
49423;BME280;36998;51.974;20.150;2022-12-13T01:12:33;99219.28;;;1.79;67.38
49423;BME280;36998;51.974;20.150;2022-12-13T01:14:59;99222.69;;;1.81;67.03
49423;BME280;36998;51.974;20.150;2022-12-13T01:17:25;99218.03;;;1.83;67.34
49423;BME280;36998;51.974;20.150;2022-12-13T01:19:51;99237.13;;;1.88;67.18
49423;BME280;36998;51.974;20.150;2022-12-13T01:22:17;99229.88;;;1.90;66.70
49423;BME280;36998;51.974;20.150;2022-12-13T01:24:42;99232.38;;;1.92;66.61
49423;BME280;36998;51.974;20.150;2022-12-13T01:27:08;99225.22;;;1.92;66.97
49423;BME280;36998;51.974;20.150;2022-12-13T01:29:34;99235.19;;;1.90;66.80
49423;BME280;36998;51.974;20.150;2022-12-13T01:31:59;99228.31;;;1.87;67.05
49423;BME280;36998;51.974;20.150;2022-12-13T01:34:28;99226.94;;;1.93;66.64
49423;BME280;36998;51.974;20.150;2022-12-13T01:36:54;99228.47;;;1.96;66.85
49423;BME280;36998;51.974;20.150;2022-12-13T01:39:23;99225.50;;;1.89;66.93
49423;BME280;36998;51.974;20.150;2022-12-13T01:41:51;99228.00;;;1.81;66.72
49423;BME280;36998;51.974;20.150;2022-12-13T01:47:35;99231.78;;;1.78;67.03
49423;BME280;36998;51.974;20.150;2022-12-13T01:50:17;99224.78;;;1.77;66.89
49423;BME280;36998;51.974;20.150;2022-12-13T01:52:47;99234.44;;;1.78;66.85
49423;BME280;36998;51.974;20.150;2022-12-13T01:55:17;99233.19;;;1.82;66.79
49423;BME280;36998;51.974;20.150;2022-12-13T01:57:46;99253.53;;;1.83;66.67
49423;BME280;36998;51.974;20.150;2022-12-13T02:00:14;99244.81;;;1.81;66.97
49423;BME280;36998;51.974;20.150;2022-12-13T02:02:40;99240.34;;;1.82;66.79
49423;BME280;36998;51.974;20.150;2022-12-13T02:07:42;99258.28;;;1.80;66.83
49423;BME280;36998;51.974;20.150;2022-12-13T02:10:10;99244.63;;;1.73;66.46
49423;BME280;36998;51.974;20.150;2022-12-13T02:12:36;99240.75;;;1.77;66.41
49423;BME280;36998;51.974;20.150;2022-12-13T02:15:10;99254.44;;;1.73;66.79
49423;BME280;36998;51.974;20.150;2022-12-13T02:18:01;99244.19;;;1.68;66.71
49423;BME280;36998;51.974;20.150;2022-12-13T02:21:00;99249.63;;;1.67;66.78
49423;BME280;36998;51.974;20.150;2022-12-13T02:23:54;99255.81;;;1.67;66.64
49423;BME280;36998;51.974;20.150;2022-12-13T02:29:32;99247.63;;;1.59;66.43
49423;BME280;36998;51.974;20.150;2022-12-13T02:34:38;99244.88;;;1.60;66.68
49423;BME280;36998;51.974;20.150;2022-12-13T02:37:14;99255.09;;;1.65;66.53
49423;BME280;36998;51.974;20.150;2022-12-13T02:39:47;99254.13;;;1.66;66.51
49423;BME280;36998;51.974;20.150;2022-12-13T02:42:28;99260.56;;;1.63;66.37
49423;BME280;36998;51.974;20.150;2022-12-13T02:45:06;99250.63;;;1.66;66.31
49423;BME280;36998;51.974;20.150;2022-12-13T02:47:38;99247.97;;;1.66;66.40
49423;BME280;36998;51.974;20.150;2022-12-13T02:50:06;99264.91;;;1.64;66.19
49423;BME280;36998;51.974;20.150;2022-12-13T02:52:34;99272.31;;;1.61;66.51
49423;BME280;36998;51.974;20.150;2022-12-13T02:55:06;99251.88;;;1.61;66.56
49423;BME280;36998;51.974;20.150;2022-12-13T03:00:15;99269.66;;;1.61;66.27
49423;BME280;36998;51.974;20.150;2022-12-13T03:03:06;99262.78;;;1.58;66.62
49423;BME280;36998;51.974;20.150;2022-12-13T03:05:44;99277.50;;;1.42;66.68
49423;BME280;36998;51.974;20.150;2022-12-13T03:11:17;99284.19;;;1.36;66.50
49423;BME280;36998;51.974;20.150;2022-12-13T03:13:56;99279.59;;;1.38;66.57
49423;BME280;36998;51.974;20.150;2022-12-13T03:18:57;99288.19;;;1.30;66.07
49423;BME280;36998;51.974;20.150;2022-12-13T03:21:24;99277.81;;;1.27;66.50
49423;BME280;36998;51.974;20.150;2022-12-13T03:23:50;99290.78;;;1.21;66.20
49423;BME280;36998;51.974;20.150;2022-12-13T03:26:20;99278.22;;;1.23;66.48
49423;BME280;36998;51.974;20.150;2022-12-13T03:28:47;99286.13;;;1.13;66.45
49423;BME280;36998;51.974;20.150;2022-12-13T03:31:13;99278.38;;;1.10;66.54
49423;BME280;36998;51.974;20.150;2022-12-13T03:33:38;99281.19;;;1.08;66.47
49423;BME280;36998;51.974;20.150;2022-12-13T03:36:05;99277.94;;;1.05;66.03
49423;BME280;36998;51.974;20.150;2022-12-13T03:38:31;99281.69;;;1.02;66.36
49423;BME280;36998;51.974;20.150;2022-12-13T03:40:59;99286.53;;;0.97;66.35
49423;BME280;36998;51.974;20.150;2022-12-13T03:43:26;99284.97;;;0.94;66.38
49423;BME280;36998;51.974;20.150;2022-12-13T03:45:52;99280.19;;;0.88;66.43
49423;BME280;36998;51.974;20.150;2022-12-13T03:48:19;99265.56;;;0.83;66.49
49423;BME280;36998;51.974;20.150;2022-12-13T03:50:45;99287.09;;;0.80;66.75
49423;BME280;36998;51.974;20.150;2022-12-13T03:53:11;99280.78;;;0.81;66.53
49423;BME280;36998;51.974;20.150;2022-12-13T03:55:37;99281.88;;;0.78;66.46
49423;BME280;36998;51.974;20.150;2022-12-13T03:58:02;99290.59;;;0.80;66.30
49423;BME280;36998;51.974;20.150;2022-12-13T04:00:28;99283.34;;;0.82;66.23
49423;BME280;36998;51.974;20.150;2022-12-13T04:02:55;99280.94;;;0.79;66.27
49423;BME280;36998;51.974;20.150;2022-12-13T04:05:20;99274.53;;;0.82;66.16
49423;BME280;36998;51.974;20.150;2022-12-13T04:07:48;99293.50;;;0.77;66.27
49423;BME280;36998;51.974;20.150;2022-12-13T04:10:14;99293.75;;;0.74;66.18
49423;BME280;36998;51.974;20.150;2022-12-13T04:12:40;99291.91;;;0.75;66.27
49423;BME280;36998;51.974;20.150;2022-12-13T04:15:24;99285.66;;;0.76;66.31
49423;BME280;36998;51.974;20.150;2022-12-13T04:17:50;99310.06;;;0.69;66.53
49423;BME280;36998;51.974;20.150;2022-12-13T04:20:16;99290.38;;;0.72;66.22
49423;BME280;36998;51.974;20.150;2022-12-13T04:22:41;99307.75;;;0.76;66.21
49423;BME280;36998;51.974;20.150;2022-12-13T04:25:07;99302.09;;;0.69;66.41
49423;BME280;36998;51.974;20.150;2022-12-13T04:27:33;99294.63;;;0.63;66.57
49423;BME280;36998;51.974;20.150;2022-12-13T04:29:59;99293.88;;;0.61;66.71
49423;BME280;36998;51.974;20.150;2022-12-13T04:32:24;99304.53;;;0.61;66.22
49423;BME280;36998;51.974;20.150;2022-12-13T04:34:50;99298.38;;;0.61;66.55
49423;BME280;36998;51.974;20.150;2022-12-13T04:37:16;99307.31;;;0.60;66.64
49423;BME280;36998;51.974;20.150;2022-12-13T04:39:43;99301.75;;;0.52;66.83
49423;BME280;36998;51.974;20.150;2022-12-13T04:42:10;99291.03;;;0.53;66.18
49423;BME280;36998;51.974;20.150;2022-12-13T04:44:36;99297.28;;;0.52;66.24
49423;BME280;36998;51.974;20.150;2022-12-13T04:47:04;99307.22;;;0.50;66.36
49423;BME280;36998;51.974;20.150;2022-12-13T04:49:30;99306.03;;;0.43;66.68
49423;BME280;36998;51.974;20.150;2022-12-13T04:51:56;99309.38;;;0.45;66.55
49423;BME280;36998;51.974;20.150;2022-12-13T04:54:22;99307.81;;;0.42;66.68
49423;BME280;36998;51.974;20.150;2022-12-13T04:56:48;99305.88;;;0.44;66.60
49423;BME280;36998;51.974;20.150;2022-12-13T04:59:14;99307.22;;;0.39;66.85
49423;BME280;36998;51.974;20.150;2022-12-13T05:01:49;99316.28;;;0.36;67.00
49423;BME280;36998;51.974;20.150;2022-12-13T05:04:25;99309.03;;;0.38;67.12
49423;BME280;36998;51.974;20.150;2022-12-13T05:07:12;99320.88;;;0.34;66.96
49423;BME280;36998;51.974;20.150;2022-12-13T05:09:40;99314.47;;;0.26;66.92
49423;BME280;36998;51.974;20.150;2022-12-13T05:12:05;99331.38;;;0.25;67.00
49423;BME280;36998;51.974;20.150;2022-12-13T05:14:32;99318.09;;;0.25;67.26
49423;BME280;36998;51.974;20.150;2022-12-13T05:17:06;99328.22;;;0.19;67.18
49423;BME280;36998;51.974;20.150;2022-12-13T05:19:32;99339.81;;;0.18;67.14
49423;BME280;36998;51.974;20.150;2022-12-13T05:21:58;99328.97;;;0.21;66.91
49423;BME280;36998;51.974;20.150;2022-12-13T05:24:24;99317.38;;;0.22;67.03
49423;BME280;36998;51.974;20.150;2022-12-13T05:26:50;99327.88;;;0.24;66.90
49423;BME280;36998;51.974;20.150;2022-12-13T05:29:16;99325.09;;;0.26;66.85
49423;BME280;36998;51.974;20.150;2022-12-13T05:31:42;99348.88;;;0.27;66.88
49423;BME280;36998;51.974;20.150;2022-12-13T05:34:13;99358.16;;;0.21;66.68
49423;BME280;36998;51.974;20.150;2022-12-13T05:36:47;99334.66;;;0.17;66.70
49423;BME280;36998;51.974;20.150;2022-12-13T05:39:13;99339.13;;;0.16;66.70
49423;BME280;36998;51.974;20.150;2022-12-13T05:41:39;99334.16;;;0.12;66.60
49423;BME280;36998;51.974;20.150;2022-12-13T05:44:05;99336.69;;;0.13;66.54
49423;BME280;36998;51.974;20.150;2022-12-13T05:46:30;99348.03;;;0.15;66.49
49423;BME280;36998;51.974;20.150;2022-12-13T05:48:56;99357.94;;;0.13;66.50
49423;BME280;36998;51.974;20.150;2022-12-13T05:51:23;99351.66;;;0.14;65.91
49423;BME280;36998;51.974;20.150;2022-12-13T05:53:48;99352.50;;;0.15;66.15
49423;BME280;36998;51.974;20.150;2022-12-13T05:56:14;99338.84;;;0.19;66.12
49423;BME280;36998;51.974;20.150;2022-12-13T05:58:39;99349.81;;;0.26;65.91
49423;BME280;36998;51.974;20.150;2022-12-13T06:01:11;99342.72;;;0.27;65.74
49423;BME280;36998;51.974;20.150;2022-12-13T06:03:37;99354.44;;;0.24;65.76
49423;BME280;36998;51.974;20.150;2022-12-13T06:06:04;99356.25;;;0.23;65.38
49423;BME280;36998;51.974;20.150;2022-12-13T06:08:30;99368.69;;;0.23;65.37
49423;BME280;36998;51.974;20.150;2022-12-13T06:10:59;99373.63;;;0.28;65.23
49423;BME280;36998;51.974;20.150;2022-12-13T06:13:30;99373.88;;;0.25;65.27
49423;BME280;36998;51.974;20.150;2022-12-13T06:16:02;99374.00;;;0.23;65.14
49423;BME280;36998;51.974;20.150;2022-12-13T06:18:33;99378.09;;;0.27;64.89
49423;BME280;36998;51.974;20.150;2022-12-13T06:21:13;99384.34;;;0.26;65.06
49423;BME280;36998;51.974;20.150;2022-12-13T06:23:43;99393.91;;;0.29;64.83
49423;BME280;36998;51.974;20.150;2022-12-13T06:26:11;99380.16;;;0.23;64.85
49423;BME280;36998;51.974;20.150;2022-12-13T06:28:36;99386.41;;;0.22;64.56
49423;BME280;36998;51.974;20.150;2022-12-13T06:31:05;99385.81;;;0.19;64.68
49423;BME280;36998;51.974;20.150;2022-12-13T06:33:31;99394.97;;;0.15;64.16
49423;BME280;36998;51.974;20.150;2022-12-13T06:36:02;99394.00;;;0.16;64.07
49423;BME280;36998;51.974;20.150;2022-12-13T06:38:28;99408.88;;;0.18;64.08
49423;BME280;36998;51.974;20.150;2022-12-13T06:40:54;99379.88;;;0.15;63.94
49423;BME280;36998;51.974;20.150;2022-12-13T06:43:20;99405.22;;;0.08;63.67
49423;BME280;36998;51.974;20.150;2022-12-13T06:45:46;99392.19;;;0.05;63.97
49423;BME280;36998;51.974;20.150;2022-12-13T06:48:12;99388.22;;;0.11;64.09
49423;BME280;36998;51.974;20.150;2022-12-13T06:50:37;99391.97;;;0.08;63.88
49423;BME280;36998;51.974;20.150;2022-12-13T06:53:03;99395.81;;;0.15;63.86
49423;BME280;36998;51.974;20.150;2022-12-13T06:55:29;99410.06;;;0.14;63.98
49423;BME280;36998;51.974;20.150;2022-12-13T06:57:56;99415.25;;;0.16;63.85
49423;BME280;36998;51.974;20.150;2022-12-13T07:00:22;99416.97;;;0.17;64.26
49423;BME280;36998;51.974;20.150;2022-12-13T07:02:54;99417.81;;;0.17;64.40
49423;BME280;36998;51.974;20.150;2022-12-13T07:05:21;99421.66;;;0.13;63.90
49423;BME280;36998;51.974;20.150;2022-12-13T07:07:47;99419.00;;;0.13;64.18
49423;BME280;36998;51.974;20.150;2022-12-13T07:10:14;99435.78;;;0.14;64.40
49423;BME280;36998;51.974;20.150;2022-12-13T07:12:40;99432.28;;;0.13;64.08
49423;BME280;36998;51.974;20.150;2022-12-13T07:15:06;99439.50;;;0.11;64.21
49423;BME280;36998;51.974;20.150;2022-12-13T07:17:32;99451.22;;;0.09;64.37
49423;BME280;36998;51.974;20.150;2022-12-13T07:19:57;99441.28;;;-0.01;64.04
49423;BME280;36998;51.974;20.150;2022-12-13T07:22:23;99441.91;;;0.03;63.84
49423;BME280;36998;51.974;20.150;2022-12-13T07:24:48;99460.38;;;0.05;63.98
49423;BME280;36998;51.974;20.150;2022-12-13T07:27:14;99441.06;;;0.03;63.49
49423;BME280;36998;51.974;20.150;2022-12-13T07:29:39;99456.28;;;0.01;63.64
49423;BME280;36998;51.974;20.150;2022-12-13T07:32:05;99466.03;;;0.00;64.01
49423;BME280;36998;51.974;20.150;2022-12-13T07:34:30;99469.94;;;0.07;63.73
49423;BME280;36998;51.974;20.150;2022-12-13T07:36:56;99492.84;;;0.08;63.65
49423;BME280;36998;51.974;20.150;2022-12-13T07:39:23;99464.22;;;0.01;63.67
49423;BME280;36998;51.974;20.150;2022-12-13T07:41:53;99466.53;;;0.05;63.49
49423;BME280;36998;51.974;20.150;2022-12-13T07:44:19;99478.50;;;0.11;63.18
49423;BME280;36998;51.974;20.150;2022-12-13T07:46:47;99474.03;;;0.11;63.00
49423;BME280;36998;51.974;20.150;2022-12-13T07:49:13;99478.38;;;0.12;62.95
49423;BME280;36998;51.974;20.150;2022-12-13T07:51:38;99478.66;;;0.20;62.81
49423;BME280;36998;51.974;20.150;2022-12-13T07:54:04;99483.25;;;0.30;62.83
49423;BME280;36998;51.974;20.150;2022-12-13T07:56:33;99474.78;;;0.25;62.60
49423;BME280;36998;51.974;20.150;2022-12-13T07:58:58;99481.78;;;0.26;62.72
49423;BME280;36998;51.974;20.150;2022-12-13T08:01:24;99492.03;;;0.19;62.88
49423;BME280;36998;51.974;20.150;2022-12-13T08:03:50;99480.22;;;0.23;62.23
49423;BME280;36998;51.974;20.150;2022-12-13T08:06:15;99486.63;;;0.32;62.51
49423;BME280;36998;51.974;20.150;2022-12-13T08:08:43;99477.44;;;0.36;62.37
49423;BME280;36998;51.974;20.150;2022-12-13T08:11:13;99490.63;;;0.49;62.10
49423;BME280;36998;51.974;20.150;2022-12-13T08:13:41;99478.19;;;0.38;62.24
49423;BME280;36998;51.974;20.150;2022-12-13T08:16:10;99487.75;;;0.40;61.94
49423;BME280;36998;51.974;20.150;2022-12-13T08:18:36;99494.25;;;0.36;62.07
49423;BME280;36998;51.974;20.150;2022-12-13T08:21:05;99482.19;;;0.43;61.78
49423;BME280;36998;51.974;20.150;2022-12-13T08:23:32;99494.88;;;0.51;61.56
49423;BME280;36998;51.974;20.150;2022-12-13T08:25:58;99510.34;;;0.57;61.46
49423;BME280;36998;51.974;20.150;2022-12-13T08:28:25;99498.97;;;0.55;61.22
49423;BME280;36998;51.974;20.150;2022-12-13T08:30:51;99508.19;;;0.62;61.18
49423;BME280;36998;51.974;20.150;2022-12-13T08:33:17;99502.50;;;0.56;61.40
49423;BME280;36998;51.974;20.150;2022-12-13T08:35:43;99499.00;;;0.66;60.84
49423;BME280;36998;51.974;20.150;2022-12-13T08:38:09;99510.00;;;0.73;61.16
49423;BME280;36998;51.974;20.150;2022-12-13T08:40:35;99520.41;;;0.76;60.67
49423;BME280;36998;51.974;20.150;2022-12-13T08:43:01;99498.75;;;0.81;60.54
49423;BME280;36998;51.974;20.150;2022-12-13T08:45:28;99509.16;;;0.95;60.71
49423;BME280;36998;51.974;20.150;2022-12-13T08:47:56;99503.84;;;0.95;60.59
49423;BME280;36998;51.974;20.150;2022-12-13T08:50:22;99515.94;;;0.99;60.26
49423;BME280;36998;51.974;20.150;2022-12-13T08:52:50;99510.84;;;0.85;60.98
49423;BME280;36998;51.974;20.150;2022-12-13T08:55:15;99513.50;;;0.74;61.23
49423;BME280;36998;51.974;20.150;2022-12-13T08:57:42;99511.56;;;0.64;61.54
49423;BME280;36998;51.974;20.150;2022-12-13T09:00:10;99520.38;;;0.65;61.59
49423;BME280;36998;51.974;20.150;2022-12-13T09:02:36;99518.31;;;0.68;61.08
49423;BME280;36998;51.974;20.150;2022-12-13T09:05:03;99538.50;;;0.71;61.14
49423;BME280;36998;51.974;20.150;2022-12-13T09:07:28;99520.72;;;0.72;60.95
49423;BME280;36998;51.974;20.150;2022-12-13T09:09:54;99517.84;;;0.63;61.05
49423;BME280;36998;51.974;20.150;2022-12-13T09:12:21;99541.28;;;0.69;61.08
49423;BME280;36998;51.974;20.150;2022-12-13T09:14:46;99524.75;;;0.66;60.95
49423;BME280;36998;51.974;20.150;2022-12-13T09:17:15;99521.94;;;0.67;61.05
49423;BME280;36998;51.974;20.150;2022-12-13T09:19:40;99519.06;;;0.70;60.81
49423;BME280;36998;51.974;20.150;2022-12-13T09:22:06;99518.06;;;0.60;60.91
49423;BME280;36998;51.974;20.150;2022-12-13T09:24:32;99527.63;;;0.63;60.76
49423;BME280;36998;51.974;20.150;2022-12-13T09:26:57;99522.88;;;0.55;60.88
49423;BME280;36998;51.974;20.150;2022-12-13T09:29:24;99528.56;;;0.51;60.91
49423;BME280;36998;51.974;20.150;2022-12-13T09:31:49;99542.59;;;0.64;61.04
49423;BME280;36998;51.974;20.150;2022-12-13T09:34:15;99526.78;;;0.74;60.79
49423;BME280;36998;51.974;20.150;2022-12-13T09:36:41;99518.81;;;0.85;60.56
49423;BME280;36998;51.974;20.150;2022-12-13T09:39:07;99517.63;;;1.00;59.99
49423;BME280;36998;51.974;20.150;2022-12-13T09:41:36;99525.84;;;1.08;59.79
49423;BME280;36998;51.974;20.150;2022-12-13T09:44:13;99523.41;;;1.16;59.35
49423;BME280;36998;51.974;20.150;2022-12-13T09:46:43;99543.97;;;1.14;59.42
49423;BME280;36998;51.974;20.150;2022-12-13T09:49:21;99529.69;;;1.04;59.71
49423;BME280;36998;51.974;20.150;2022-12-13T09:51:56;99535.97;;;0.81;59.64
49423;BME280;36998;51.974;20.150;2022-12-13T09:54:24;99545.25;;;0.75;59.70
49423;BME280;36998;51.974;20.150;2022-12-13T09:56:50;99519.78;;;0.84;59.85
49423;BME280;36998;51.974;20.150;2022-12-13T09:59:18;99531.63;;;0.91;59.83
49423;BME280;36998;51.974;20.150;2022-12-13T10:01:45;99518.59;;;0.99;59.23
49423;BME280;36998;51.974;20.150;2022-12-13T10:04:13;99526.56;;;0.99;59.30
49423;BME280;36998;51.974;20.150;2022-12-13T10:06:39;99528.25;;;1.00;59.49
49423;BME280;36998;51.974;20.150;2022-12-13T10:09:06;99525.72;;;0.99;59.38
49423;BME280;36998;51.974;20.150;2022-12-13T10:11:35;99542.03;;;1.05;59.25
49423;BME280;36998;51.974;20.150;2022-12-13T10:14:08;99531.75;;;1.34;58.86
49423;BME280;36998;51.974;20.150;2022-12-13T10:16:42;99528.22;;;1.45;58.81
49423;BME280;36998;51.974;20.150;2022-12-13T10:19:23;99514.28;;;1.64;58.36
49423;BME280;36998;51.974;20.150;2022-12-13T10:21:51;99531.28;;;1.73;58.09
49423;BME280;36998;51.974;20.150;2022-12-13T10:24:20;99532.66;;;1.67;58.15
49423;BME280;36998;51.974;20.150;2022-12-13T10:26:46;99534.69;;;1.75;57.68
49423;BME280;36998;51.974;20.150;2022-12-13T10:29:12;99509.00;;;1.85;57.60
49423;BME280;36998;51.974;20.150;2022-12-13T10:31:47;99517.28;;;2.03;57.37
49423;BME280;36998;51.974;20.150;2022-12-13T10:34:27;99514.47;;;2.04;57.35
49423;BME280;36998;51.974;20.150;2022-12-13T10:36:54;99504.91;;;2.02;57.07
49423;BME280;36998;51.974;20.150;2022-12-13T10:39:42;99520.91;;;2.02;57.38
49423;BME280;36998;51.974;20.150;2022-12-13T10:42:12;99505.66;;;2.04;57.03
49423;BME280;36998;51.974;20.150;2022-12-13T10:44:43;99518.06;;;2.15;56.90
49423;BME280;36998;51.974;20.150;2022-12-13T10:47:23;99517.94;;;2.16;56.75
49423;BME280;36998;51.974;20.150;2022-12-13T10:49:52;99514.88;;;2.21;56.67
49423;BME280;36998;51.974;20.150;2022-12-13T10:52:37;99517.03;;;2.27;56.68
49423;BME280;36998;51.974;20.150;2022-12-13T10:55:07;99518.19;;;2.13;56.71
49423;BME280;36998;51.974;20.150;2022-12-13T10:57:56;99507.88;;;2.20;56.83
49423;BME280;36998;51.974;20.150;2022-12-13T11:00:34;99517.94;;;2.37;56.30
49423;BME280;36998;51.974;20.150;2022-12-13T11:03:01;99516.28;;;2.36;56.42
49423;BME280;36998;51.974;20.150;2022-12-13T11:05:33;99518.06;;;2.56;56.23
49423;BME280;36998;51.974;20.150;2022-12-13T11:08:21;99520.81;;;2.97;55.83
49423;BME280;36998;51.974;20.150;2022-12-13T11:10:59;99525.38;;;3.16;55.12
49423;BME280;36998;51.974;20.150;2022-12-13T11:13:32;99508.97;;;3.20;54.91
49423;BME280;36998;51.974;20.150;2022-12-13T11:16:02;99514.50;;;3.38;54.11
49423;BME280;36998;51.974;20.150;2022-12-13T11:18:34;99508.66;;;3.64;54.15
49423;BME280;36998;51.974;20.150;2022-12-13T11:21:02;99505.44;;;3.70;54.08
49423;BME280;36998;51.974;20.150;2022-12-13T11:23:34;99504.28;;;3.63;53.91
49423;BME280;36998;51.974;20.150;2022-12-13T11:26:07;99510.56;;;3.42;53.86
49423;BME280;36998;51.974;20.150;2022-12-13T11:31:18;99505.09;;;3.03;55.11
49423;BME280;36998;51.974;20.150;2022-12-13T11:36:49;99518.53;;;2.62;55.49
49423;BME280;36998;51.974;20.150;2022-12-13T11:39:31;99510.47;;;2.52;55.45
49423;BME280;36998;51.974;20.150;2022-12-13T11:42:27;99519.50;;;2.40;55.74
49423;BME280;36998;51.974;20.150;2022-12-13T11:45:14;99517.75;;;2.29;55.73
49423;BME280;36998;51.974;20.150;2022-12-13T11:47:45;99525.47;;;2.11;56.20
49423;BME280;36998;51.974;20.150;2022-12-13T11:50:21;99527.53;;;2.07;56.11
49423;BME280;36998;51.974;20.150;2022-12-13T11:52:52;99531.56;;;2.02;56.17
49423;BME280;36998;51.974;20.150;2022-12-13T11:55:41;99525.53;;;2.00;56.58
49423;BME280;36998;51.974;20.150;2022-12-13T11:58:31;99525.19;;;1.93;56.54
49423;BME280;36998;51.974;20.150;2022-12-13T12:01:03;99538.25;;;1.96;56.32
49423;BME280;36998;51.974;20.150;2022-12-13T12:03:45;99538.50;;;1.93;56.38
49423;BME280;36998;51.974;20.150;2022-12-13T12:06:21;99531.09;;;1.97;56.53
49423;BME280;36998;51.974;20.150;2022-12-13T12:08:56;99531.44;;;2.03;56.82
49423;BME280;36998;51.974;20.150;2022-12-13T12:19:15;99543.53;;;2.07;56.82
49423;BME280;36998;51.974;20.150;2022-12-13T12:22:14;99536.69;;;1.94;57.08
49423;BME280;36998;51.974;20.150;2022-12-13T12:27:38;99547.09;;;1.85;57.17
49423;BME280;36998;51.974;20.150;2022-12-13T12:30:15;99539.25;;;1.84;57.19
49423;BME280;36998;51.974;20.150;2022-12-13T12:32:53;99559.72;;;1.83;57.38
49423;BME280;36998;51.974;20.150;2022-12-13T12:43:57;99548.72;;;1.66;57.86
49423;BME280;36998;51.974;20.150;2022-12-13T12:46:38;99559.03;;;1.70;58.20
49423;BME280;36998;51.974;20.150;2022-12-13T12:58:38;99568.31;;;1.76;58.30
49423;BME280;36998;51.974;20.150;2022-12-13T13:03:18;99579.91;;;1.86;58.33
49423;BME280;36998;51.974;20.150;2022-12-13T13:06:11;99576.47;;;2.06;58.13
49423;BME280;36998;51.974;20.150;2022-12-13T13:08:52;99569.75;;;2.12;58.08
49423;BME280;36998;51.974;20.150;2022-12-13T13:11:28;99577.16;;;2.08;58.21
49423;BME280;36998;51.974;20.150;2022-12-13T13:14:33;99576.97;;;2.00;58.34
49423;BME280;36998;51.974;20.150;2022-12-13T13:22:37;99597.25;;;1.69;58.59
49423;BME280;36998;51.974;20.150;2022-12-13T13:27:29;99604.16;;;1.72;58.34
49423;BME280;36998;51.974;20.150;2022-12-13T13:32:32;99606.47;;;1.54;58.70
49423;BME280;36998;51.974;20.150;2022-12-13T13:37:53;99612.66;;;1.32;58.93
49423;BME280;36998;51.974;20.150;2022-12-13T13:45:58;99609.50;;;1.15;59.28
49423;BME280;36998;51.974;20.150;2022-12-13T13:51:50;99628.31;;;0.90;59.43
49423;BME280;36998;51.974;20.150;2022-12-13T13:57:51;99625.97;;;0.63;59.96
49423;BME280;36998;51.974;20.150;2022-12-13T14:24:37;99639.19;;;0.16;60.73
49423;BME280;36998;51.974;20.150;2022-12-13T14:29:39;99647.69;;;0.09;60.67
49423;BME280;36998;51.974;20.150;2022-12-13T14:32:18;99643.00;;;0.12;60.93
49423;BME280;36998;51.974;20.150;2022-12-13T14:34:45;99649.28;;;0.11;60.51
49423;BME280;36998;51.974;20.150;2022-12-13T14:37:24;99637.59;;;0.14;60.66
49423;BME280;36998;51.974;20.150;2022-12-13T14:39:57;99643.28;;;0.20;60.67
49423;BME280;36998;51.974;20.150;2022-12-13T14:44:51;99639.75;;;0.33;60.65
49423;BME280;36998;51.974;20.150;2022-12-13T14:47:18;99639.25;;;0.39;60.59
49423;BME280;36998;51.974;20.150;2022-12-13T14:49:46;99645.94;;;0.44;60.03
49423;BME280;36998;51.974;20.150;2022-12-13T14:54:51;99635.81;;;0.50;60.49
49423;BME280;36998;51.974;20.150;2022-12-13T14:57:23;99631.44;;;0.49;60.65
49423;BME280;36998;51.974;20.150;2022-12-13T14:59:51;99638.69;;;0.46;60.77
49423;BME280;36998;51.974;20.150;2022-12-13T15:02:22;99632.78;;;0.43;60.63
49423;BME280;36998;51.974;20.150;2022-12-13T15:04:52;99640.50;;;0.46;60.88
49423;BME280;36998;51.974;20.150;2022-12-13T15:07:36;99646.28;;;0.40;60.83